sensor_id;sensor_type;location;lat;lon;timestamp;P1;durP1;ratioP1;P2;durP2;ratioP2
46078;SDS011;31820;51.880;-0.518;2022-08-03T00:01:23;11.98;;;2.33;;
46078;SDS011;31820;51.880;-0.518;2022-08-03T00:03:49;9.70;;;2.90;;
46078;SDS011;31820;51.880;-0.518;2022-08-03T00:06:14;8.88;;;2.20;;
46078;SDS011;31820;51.880;-0.518;2022-08-03T00:08:40;12.85;;;2.50;;
46078;SDS011;31820;51.880;-0.518;2022-08-03T00:11:06;7.43;;;2.50;;
46078;SDS011;31820;51.880;-0.518;2022-08-03T00:13:32;12.20;;;2.35;;
46078;SDS011;31820;51.880;-0.518;2022-08-03T00:15:57;11.43;;;2.10;;
46078;SDS011;31820;51.880;-0.518;2022-08-03T00:18:23;11.65;;;2.47;;
46078;SDS011;31820;51.880;-0.518;2022-08-03T00:20:48;11.27;;;2.83;;
46078;SDS011;31820;51.880;-0.518;2022-08-03T00:23:14;11.45;;;2.42;;
46078;SDS011;31820;51.880;-0.518;2022-08-03T00:25:40;8.43;;;2.30;;
46078;SDS011;31820;51.880;-0.518;2022-08-03T00:28:06;8.07;;;2.22;;
46078;SDS011;31820;51.880;-0.518;2022-08-03T00:30:32;11.35;;;2.53;;
46078;SDS011;31820;51.880;-0.518;2022-08-03T00:32:58;6.97;;;2.00;;
46078;SDS011;31820;51.880;-0.518;2022-08-03T00:35:24;8.15;;;1.98;;
46078;SDS011;31820;51.880;-0.518;2022-08-03T00:37:49;6.68;;;2.05;;
46078;SDS011;31820;51.880;-0.518;2022-08-03T00:40:16;9.07;;;2.20;;
46078;SDS011;31820;51.880;-0.518;2022-08-03T00:42:50;9.60;;;1.90;;
46078;SDS011;31820;51.880;-0.518;2022-08-03T00:45:18;6.75;;;2.03;;
46078;SDS011;31820;51.880;-0.518;2022-08-03T00:47:44;9.88;;;1.63;;
46078;SDS011;31820;51.880;-0.518;2022-08-03T00:50:10;7.15;;;1.88;;
46078;SDS011;31820;51.880;-0.518;2022-08-03T00:52:36;7.80;;;2.45;;
46078;SDS011;31820;51.880;-0.518;2022-08-03T00:55:02;7.80;;;1.98;;
46078;SDS011;31820;51.880;-0.518;2022-08-03T00:57:31;8.17;;;1.50;;
46078;SDS011;31820;51.880;-0.518;2022-08-03T00:59:57;7.53;;;1.90;;
46078;SDS011;31820;51.880;-0.518;2022-08-03T01:02:24;6.80;;;1.85;;
46078;SDS011;31820;51.880;-0.518;2022-08-03T01:04:51;8.68;;;1.70;;
46078;SDS011;31820;51.880;-0.518;2022-08-03T01:07:20;7.80;;;2.30;;
46078;SDS011;31820;51.880;-0.518;2022-08-03T01:11:03;9.52;;;2.33;;
46078;SDS011;31820;51.880;-0.518;2022-08-03T01:13:24;7.60;;;1.90;;
46078;SDS011;31820;51.880;-0.518;2022-08-03T01:15:58;6.72;;;1.55;;
46078;SDS011;31820;51.880;-0.518;2022-08-03T01:18:33;8.48;;;2.38;;
46078;SDS011;31820;51.880;-0.518;2022-08-03T01:21:11;9.13;;;1.80;;
46078;SDS011;31820;51.880;-0.518;2022-08-03T01:32:02;7.57;;;1.48;;
46078;SDS011;31820;51.880;-0.518;2022-08-03T01:34:35;8.23;;;1.58;;
46078;SDS011;31820;51.880;-0.518;2022-08-03T01:37:07;7.47;;;2.65;;
46078;SDS011;31820;51.880;-0.518;2022-08-03T01:39:35;8.90;;;2.17;;
46078;SDS011;31820;51.880;-0.518;2022-08-03T01:42:04;7.65;;;1.45;;
46078;SDS011;31820;51.880;-0.518;2022-08-03T01:44:35;6.88;;;1.48;;
46078;SDS011;31820;51.880;-0.518;2022-08-03T01:47:04;5.65;;;1.38;;
46078;SDS011;31820;51.880;-0.518;2022-08-03T01:49:32;7.53;;;1.80;;
46078;SDS011;31820;51.880;-0.518;2022-08-03T01:52:01;4.70;;;1.23;;
46078;SDS011;31820;51.880;-0.518;2022-08-03T01:54:28;6.88;;;1.67;;
46078;SDS011;31820;51.880;-0.518;2022-08-03T01:56:55;6.30;;;1.70;;
46078;SDS011;31820;51.880;-0.518;2022-08-03T02:01:49;3.65;;;1.10;;
46078;SDS011;31820;51.880;-0.518;2022-08-03T02:04:18;5.70;;;1.45;;
46078;SDS011;31820;51.880;-0.518;2022-08-03T02:06:46;7.15;;;1.60;;
46078;SDS011;31820;51.880;-0.518;2022-08-03T02:09:13;3.95;;;1.42;;
46078;SDS011;31820;51.880;-0.518;2022-08-03T02:11:41;4.18;;;1.15;;
46078;SDS011;31820;51.880;-0.518;2022-08-03T02:14:08;6.80;;;1.25;;
46078;SDS011;31820;51.880;-0.518;2022-08-03T02:16:35;5.78;;;0.98;;
46078;SDS011;31820;51.880;-0.518;2022-08-03T02:19:03;4.10;;;1.10;;
46078;SDS011;31820;51.880;-0.518;2022-08-03T02:21:31;3.92;;;1.35;;
46078;SDS011;31820;51.880;-0.518;2022-08-03T02:23:59;6.65;;;1.75;;
46078;SDS011;31820;51.880;-0.518;2022-08-03T02:26:27;4.78;;;1.33;;
46078;SDS011;31820;51.880;-0.518;2022-08-03T02:28:54;5.82;;;1.25;;
46078;SDS011;31820;51.880;-0.518;2022-08-03T02:31:23;4.03;;;0.82;;
46078;SDS011;31820;51.880;-0.518;2022-08-03T02:33:53;4.25;;;0.90;;
46078;SDS011;31820;51.880;-0.518;2022-08-03T02:36:26;5.53;;;1.52;;
46078;SDS011;31820;51.880;-0.518;2022-08-03T02:38:53;6.68;;;1.20;;
46078;SDS011;31820;51.880;-0.518;2022-08-03T02:41:24;4.18;;;1.05;;
46078;SDS011;31820;51.880;-0.518;2022-08-03T02:43:54;4.30;;;1.00;;
46078;SDS011;31820;51.880;-0.518;2022-08-03T02:46:24;3.55;;;1.15;;
46078;SDS011;31820;51.880;-0.518;2022-08-03T02:48:55;4.65;;;1.35;;
46078;SDS011;31820;51.880;-0.518;2022-08-03T02:51:23;4.47;;;1.05;;
46078;SDS011;31820;51.880;-0.518;2022-08-03T02:53:52;5.03;;;0.82;;
46078;SDS011;31820;51.880;-0.518;2022-08-03T02:56:20;2.47;;;0.90;;
46078;SDS011;31820;51.880;-0.518;2022-08-03T02:58:48;4.13;;;1.20;;
46078;SDS011;31820;51.880;-0.518;2022-08-03T03:01:14;3.33;;;0.63;;
46078;SDS011;31820;51.880;-0.518;2022-08-03T03:03:43;6.07;;;1.00;;
46078;SDS011;31820;51.880;-0.518;2022-08-03T03:06:09;5.88;;;1.02;;
46078;SDS011;31820;51.880;-0.518;2022-08-03T03:08:35;5.85;;;1.05;;
46078;SDS011;31820;51.880;-0.518;2022-08-03T03:11:01;5.10;;;1.05;;
46078;SDS011;31820;51.880;-0.518;2022-08-03T03:13:27;3.90;;;1.05;;
46078;SDS011;31820;51.880;-0.518;2022-08-03T03:15:55;4.13;;;1.27;;
46078;SDS011;31820;51.880;-0.518;2022-08-03T03:18:23;4.90;;;1.00;;
46078;SDS011;31820;51.880;-0.518;2022-08-03T03:20:51;3.10;;;0.80;;
46078;SDS011;31820;51.880;-0.518;2022-08-03T03:23:19;3.40;;;1.10;;
46078;SDS011;31820;51.880;-0.518;2022-08-03T03:25:46;4.57;;;1.20;;
46078;SDS011;31820;51.880;-0.518;2022-08-03T03:28:13;3.92;;;0.98;;
46078;SDS011;31820;51.880;-0.518;2022-08-03T03:30:39;5.03;;;0.88;;
46078;SDS011;31820;51.880;-0.518;2022-08-03T03:33:05;2.92;;;1.00;;
46078;SDS011;31820;51.880;-0.518;2022-08-03T03:35:31;4.82;;;1.27;;
46078;SDS011;31820;51.880;-0.518;2022-08-03T03:37:57;6.05;;;1.05;;
46078;SDS011;31820;51.880;-0.518;2022-08-03T03:40:22;5.90;;;1.42;;
46078;SDS011;31820;51.880;-0.518;2022-08-03T03:42:49;3.40;;;1.10;;
46078;SDS011;31820;51.880;-0.518;2022-08-03T03:45:14;4.32;;;1.30;;
46078;SDS011;31820;51.880;-0.518;2022-08-03T03:47:40;5.20;;;0.85;;
46078;SDS011;31820;51.880;-0.518;2022-08-03T03:50:06;4.47;;;1.00;;
46078;SDS011;31820;51.880;-0.518;2022-08-03T03:52:32;8.38;;;1.75;;
46078;SDS011;31820;51.880;-0.518;2022-08-03T03:54:58;6.43;;;1.00;;
46078;SDS011;31820;51.880;-0.518;2022-08-03T03:57:23;6.30;;;1.70;;
46078;SDS011;31820;51.880;-0.518;2022-08-03T03:59:49;2.58;;;0.88;;
46078;SDS011;31820;51.880;-0.518;2022-08-03T04:02:14;3.97;;;1.20;;
46078;SDS011;31820;51.880;-0.518;2022-08-03T04:04:40;6.63;;;1.00;;
46078;SDS011;31820;51.880;-0.518;2022-08-03T04:07:25;4.45;;;0.93;;
46078;SDS011;31820;51.880;-0.518;2022-08-03T04:10:17;5.10;;;1.00;;
46078;SDS011;31820;51.880;-0.518;2022-08-03T04:13:06;2.42;;;0.80;;
46078;SDS011;31820;51.880;-0.518;2022-08-03T04:15:39;4.68;;;1.00;;
46078;SDS011;31820;51.880;-0.518;2022-08-03T04:18:06;4.30;;;1.10;;
46078;SDS011;31820;51.880;-0.518;2022-08-03T04:20:36;4.25;;;1.08;;
46078;SDS011;31820;51.880;-0.518;2022-08-03T04:23:05;5.95;;;1.17;;
46078;SDS011;31820;51.880;-0.518;2022-08-03T04:25:32;4.15;;;0.82;;
46078;SDS011;31820;51.880;-0.518;2022-08-03T04:28:01;4.60;;;0.88;;
46078;SDS011;31820;51.880;-0.518;2022-08-03T04:30:28;5.97;;;1.10;;
46078;SDS011;31820;51.880;-0.518;2022-08-03T04:32:55;4.75;;;0.80;;
46078;SDS011;31820;51.880;-0.518;2022-08-03T04:35:22;3.25;;;0.70;;
46078;SDS011;31820;51.880;-0.518;2022-08-03T04:37:50;4.32;;;0.70;;
46078;SDS011;31820;51.880;-0.518;2022-08-03T04:40:29;5.88;;;1.52;;
46078;SDS011;31820;51.880;-0.518;2022-08-03T04:42:58;3.92;;;0.80;;
46078;SDS011;31820;51.880;-0.518;2022-08-03T04:45:24;1.90;;;0.68;;
46078;SDS011;31820;51.880;-0.518;2022-08-03T04:50:17;5.35;;;0.88;;
46078;SDS011;31820;51.880;-0.518;2022-08-03T04:52:44;4.55;;;0.70;;
46078;SDS011;31820;51.880;-0.518;2022-08-03T04:55:09;3.30;;;0.68;;
46078;SDS011;31820;51.880;-0.518;2022-08-03T04:57:35;3.67;;;0.95;;
46078;SDS011;31820;51.880;-0.518;2022-08-03T05:00:00;3.20;;;1.17;;
46078;SDS011;31820;51.880;-0.518;2022-08-03T05:02:26;3.90;;;1.00;;
46078;SDS011;31820;51.880;-0.518;2022-08-03T05:04:51;3.00;;;0.80;;
46078;SDS011;31820;51.880;-0.518;2022-08-03T05:07:17;3.28;;;0.90;;
46078;SDS011;31820;51.880;-0.518;2022-08-03T05:09:43;3.85;;;0.70;;
46078;SDS011;31820;51.880;-0.518;2022-08-03T05:12:09;7.35;;;1.60;;
46078;SDS011;31820;51.880;-0.518;2022-08-03T05:14:35;3.80;;;0.98;;
46078;SDS011;31820;51.880;-0.518;2022-08-03T05:17:06;3.95;;;0.93;;
46078;SDS011;31820;51.880;-0.518;2022-08-03T05:19:33;8.27;;;1.17;;
46078;SDS011;31820;51.880;-0.518;2022-08-03T05:21:58;4.35;;;1.08;;
46078;SDS011;31820;51.880;-0.518;2022-08-03T05:24:24;4.75;;;1.02;;
46078;SDS011;31820;51.880;-0.518;2022-08-03T05:26:50;5.97;;;1.33;;
46078;SDS011;31820;51.880;-0.518;2022-08-03T05:29:15;3.72;;;0.93;;
46078;SDS011;31820;51.880;-0.518;2022-08-03T05:31:41;4.68;;;1.05;;
46078;SDS011;31820;51.880;-0.518;2022-08-03T05:34:06;2.88;;;0.80;;
46078;SDS011;31820;51.880;-0.518;2022-08-03T05:36:32;3.15;;;0.88;;
46078;SDS011;31820;51.880;-0.518;2022-08-03T05:38:57;3.45;;;0.80;;
46078;SDS011;31820;51.880;-0.518;2022-08-03T05:41:23;3.58;;;0.80;;
46078;SDS011;31820;51.880;-0.518;2022-08-03T05:43:48;2.97;;;0.70;;
46078;SDS011;31820;51.880;-0.518;2022-08-03T05:46:15;3.50;;;0.63;;
46078;SDS011;31820;51.880;-0.518;2022-08-03T05:48:40;3.58;;;1.05;;
46078;SDS011;31820;51.880;-0.518;2022-08-03T05:51:06;3.63;;;0.95;;
46078;SDS011;31820;51.880;-0.518;2022-08-03T05:53:35;2.78;;;0.60;;
46078;SDS011;31820;51.880;-0.518;2022-08-03T05:56:02;2.10;;;0.32;;
46078;SDS011;31820;51.880;-0.518;2022-08-03T05:58:28;3.17;;;0.60;;
46078;SDS011;31820;51.880;-0.518;2022-08-03T06:00:53;3.25;;;0.50;;
46078;SDS011;31820;51.880;-0.518;2022-08-03T06:03:19;2.03;;;0.40;;
46078;SDS011;31820;51.880;-0.518;2022-08-03T06:05:44;1.65;;;0.60;;
46078;SDS011;31820;51.880;-0.518;2022-08-03T06:08:10;1.95;;;0.30;;
46078;SDS011;31820;51.880;-0.518;2022-08-03T06:10:36;5.07;;;0.95;;
46078;SDS011;31820;51.880;-0.518;2022-08-03T06:13:02;3.85;;;0.60;;
46078;SDS011;31820;51.880;-0.518;2022-08-03T06:15:28;4.38;;;0.90;;
46078;SDS011;31820;51.880;-0.518;2022-08-03T06:17:53;2.00;;;0.45;;
46078;SDS011;31820;51.880;-0.518;2022-08-03T06:20:21;1.15;;;0.25;;
46078;SDS011;31820;51.880;-0.518;2022-08-03T06:22:46;2.42;;;0.30;;
46078;SDS011;31820;51.880;-0.518;2022-08-03T06:25:12;3.13;;;0.45;;
46078;SDS011;31820;51.880;-0.518;2022-08-03T06:27:38;1.00;;;0.20;;
46078;SDS011;31820;51.880;-0.518;2022-08-03T06:30:08;1.42;;;0.30;;
46078;SDS011;31820;51.880;-0.518;2022-08-03T06:32:37;1.65;;;0.20;;
46078;SDS011;31820;51.880;-0.518;2022-08-03T06:35:06;1.45;;;0.20;;
46078;SDS011;31820;51.880;-0.518;2022-08-03T06:37:42;1.02;;;0.25;;
46078;SDS011;31820;51.880;-0.518;2022-08-03T06:40:13;1.92;;;0.57;;
46078;SDS011;31820;51.880;-0.518;2022-08-03T06:42:41;1.80;;;0.50;;
46078;SDS011;31820;51.880;-0.518;2022-08-03T06:45:08;0.83;;;0.40;;
46078;SDS011;31820;51.880;-0.518;2022-08-03T06:47:34;1.15;;;0.30;;
46078;SDS011;31820;51.880;-0.518;2022-08-03T06:50:01;1.40;;;0.30;;
46078;SDS011;31820;51.880;-0.518;2022-08-03T06:52:27;1.80;;;0.28;;
46078;SDS011;31820;51.880;-0.518;2022-08-03T06:54:52;0.70;;;0.25;;
46078;SDS011;31820;51.880;-0.518;2022-08-03T06:57:18;3.58;;;0.60;;
46078;SDS011;31820;51.880;-0.518;2022-08-03T06:59:43;1.55;;;0.20;;
46078;SDS011;31820;51.880;-0.518;2022-08-03T07:02:09;2.92;;;0.43;;
46078;SDS011;31820;51.880;-0.518;2022-08-03T07:04:35;1.50;;;0.63;;
46078;SDS011;31820;51.880;-0.518;2022-08-03T07:07:01;3.78;;;0.63;;
46078;SDS011;31820;51.880;-0.518;2022-08-03T07:09:27;1.35;;;0.30;;
46078;SDS011;31820;51.880;-0.518;2022-08-03T07:11:52;2.20;;;0.35;;
46078;SDS011;31820;51.880;-0.518;2022-08-03T07:14:19;1.10;;;0.20;;
46078;SDS011;31820;51.880;-0.518;2022-08-03T07:16:45;0.75;;;0.20;;
46078;SDS011;31820;51.880;-0.518;2022-08-03T07:19:10;1.67;;;0.50;;
46078;SDS011;31820;51.880;-0.518;2022-08-03T07:21:36;3.03;;;0.40;;
46078;SDS011;31820;51.880;-0.518;2022-08-03T07:24:02;1.40;;;0.40;;
46078;SDS011;31820;51.880;-0.518;2022-08-03T07:26:28;1.65;;;0.57;;
46078;SDS011;31820;51.880;-0.518;2022-08-03T07:28:53;1.92;;;0.50;;
46078;SDS011;31820;51.880;-0.518;2022-08-03T07:31:19;2.50;;;0.32;;
46078;SDS011;31820;51.880;-0.518;2022-08-03T07:33:44;1.33;;;0.38;;
46078;SDS011;31820;51.880;-0.518;2022-08-03T07:36:10;2.50;;;0.45;;
46078;SDS011;31820;51.880;-0.518;2022-08-03T07:38:35;1.88;;;0.30;;
46078;SDS011;31820;51.880;-0.518;2022-08-03T07:41:01;1.90;;;0.30;;
46078;SDS011;31820;51.880;-0.518;2022-08-03T07:43:27;4.10;;;0.93;;
46078;SDS011;31820;51.880;-0.518;2022-08-03T07:45:53;1.70;;;0.30;;
46078;SDS011;31820;51.880;-0.518;2022-08-03T07:48:18;2.17;;;0.30;;
46078;SDS011;31820;51.880;-0.518;2022-08-03T07:50:44;1.17;;;0.40;;
46078;SDS011;31820;51.880;-0.518;2022-08-03T07:53:10;2.30;;;0.90;;
46078;SDS011;31820;51.880;-0.518;2022-08-03T07:55:36;1.52;;;0.32;;
46078;SDS011;31820;51.880;-0.518;2022-08-03T08:00:30;2.30;;;1.05;;
46078;SDS011;31820;51.880;-0.518;2022-08-03T08:02:56;2.67;;;0.70;;
46078;SDS011;31820;51.880;-0.518;2022-08-03T08:05:22;5.75;;;0.47;;
46078;SDS011;31820;51.880;-0.518;2022-08-03T08:07:48;1.02;;;0.20;;
46078;SDS011;31820;51.880;-0.518;2022-08-03T08:10:13;3.83;;;0.70;;
46078;SDS011;31820;51.880;-0.518;2022-08-03T08:12:39;2.92;;;0.40;;
46078;SDS011;31820;51.880;-0.518;2022-08-03T08:15:06;2.40;;;0.50;;
46078;SDS011;31820;51.880;-0.518;2022-08-03T08:20:28;3.95;;;0.22;;
46078;SDS011;31820;51.880;-0.518;2022-08-03T08:22:56;2.03;;;0.47;;
46078;SDS011;31820;51.880;-0.518;2022-08-03T08:25:25;2.17;;;0.40;;
46078;SDS011;31820;51.880;-0.518;2022-08-03T08:27:51;1.42;;;0.28;;
46078;SDS011;31820;51.880;-0.518;2022-08-03T08:30:18;1.60;;;0.28;;
46078;SDS011;31820;51.880;-0.518;2022-08-03T08:32:46;2.10;;;0.82;;
46078;SDS011;31820;51.880;-0.518;2022-08-03T08:35:13;2.58;;;0.28;;
46078;SDS011;31820;51.880;-0.518;2022-08-03T08:37:39;3.25;;;0.82;;
46078;SDS011;31820;51.880;-0.518;2022-08-03T08:40:05;2.08;;;0.20;;
46078;SDS011;31820;51.880;-0.518;2022-08-03T08:42:32;0.80;;;0.22;;
46078;SDS011;31820;51.880;-0.518;2022-08-03T08:45:01;2.38;;;0.47;;
46078;SDS011;31820;51.880;-0.518;2022-08-03T08:47:30;2.17;;;0.28;;
46078;SDS011;31820;51.880;-0.518;2022-08-03T08:49:57;1.00;;;0.20;;
46078;SDS011;31820;51.880;-0.518;2022-08-03T08:55:00;1.58;;;0.65;;
46078;SDS011;31820;51.880;-0.518;2022-08-03T08:57:49;0.95;;;0.20;;
46078;SDS011;31820;51.880;-0.518;2022-08-03T09:00:15;2.40;;;0.40;;
46078;SDS011;31820;51.880;-0.518;2022-08-03T09:02:42;0.30;;;0.10;;
46078;SDS011;31820;51.880;-0.518;2022-08-03T09:05:15;1.42;;;0.30;;
46078;SDS011;31820;51.880;-0.518;2022-08-03T09:07:43;0.95;;;0.30;;
46078;SDS011;31820;51.880;-0.518;2022-08-03T09:12:37;0.68;;;0.13;;
46078;SDS011;31820;51.880;-0.518;2022-08-03T09:18:04;1.90;;;0.38;;
46078;SDS011;31820;51.880;-0.518;2022-08-03T09:20:31;2.85;;;0.32;;
46078;SDS011;31820;51.880;-0.518;2022-08-03T09:22:59;1.10;;;0.40;;
46078;SDS011;31820;51.880;-0.518;2022-08-03T09:25:32;2.05;;;0.60;;
46078;SDS011;31820;51.880;-0.518;2022-08-03T09:28:09;0.38;;;0.10;;
46078;SDS011;31820;51.880;-0.518;2022-08-03T09:30:40;2.25;;;0.20;;
46078;SDS011;31820;51.880;-0.518;2022-08-03T09:33:10;2.50;;;0.30;;
46078;SDS011;31820;51.880;-0.518;2022-08-03T09:35:45;0.98;;;0.20;;
46078;SDS011;31820;51.880;-0.518;2022-08-03T09:40:37;1.40;;;0.30;;
46078;SDS011;31820;51.880;-0.518;2022-08-03T09:43:03;1.90;;;0.20;;
46078;SDS011;31820;51.880;-0.518;2022-08-03T09:45:32;1.00;;;0.20;;
46078;SDS011;31820;51.880;-0.518;2022-08-03T09:48:18;2.30;;;0.30;;
46078;SDS011;31820;51.880;-0.518;2022-08-03T09:50:51;0.77;;;0.10;;
46078;SDS011;31820;51.880;-0.518;2022-08-03T09:53:17;2.95;;;0.55;;
46078;SDS011;31820;51.880;-0.518;2022-08-03T09:55:54;1.50;;;0.35;;
46078;SDS011;31820;51.880;-0.518;2022-08-03T09:58:21;0.55;;;0.05;;
46078;SDS011;31820;51.880;-0.518;2022-08-03T10:03:18;0.20;;;0.05;;
46078;SDS011;31820;51.880;-0.518;2022-08-03T10:05:44;2.63;;;0.40;;
46078;SDS011;31820;51.880;-0.518;2022-08-03T10:08:16;0.90;;;0.22;;
46078;SDS011;31820;51.880;-0.518;2022-08-03T10:10:45;5.05;;;0.30;;
46078;SDS011;31820;51.880;-0.518;2022-08-03T10:13:12;5.57;;;0.50;;
46078;SDS011;31820;51.880;-0.518;2022-08-03T10:15:38;3.30;;;0.20;;
46078;SDS011;31820;51.880;-0.518;2022-08-03T10:18:05;2.13;;;0.20;;
46078;SDS011;31820;51.880;-0.518;2022-08-03T10:23:28;2.22;;;0.38;;
46078;SDS011;31820;51.880;-0.518;2022-08-03T10:26:03;3.33;;;0.10;;
46078;SDS011;31820;51.880;-0.518;2022-08-03T10:28:34;1.48;;;0.20;;
46078;SDS011;31820;51.880;-0.518;2022-08-03T10:31:00;0.25;;;0.08;;
46078;SDS011;31820;51.880;-0.518;2022-08-03T10:33:30;2.60;;;0.57;;
46078;SDS011;31820;51.880;-0.518;2022-08-03T10:35:58;0.82;;;0.30;;
46078;SDS011;31820;51.880;-0.518;2022-08-03T10:38:31;1.35;;;0.20;;
46078;SDS011;31820;51.880;-0.518;2022-08-03T10:41:01;0.70;;;0.20;;
46078;SDS011;31820;51.880;-0.518;2022-08-03T10:43:33;1.13;;;0.20;;
46078;SDS011;31820;51.880;-0.518;2022-08-03T10:46:05;2.28;;;0.43;;
46078;SDS011;31820;51.880;-0.518;2022-08-03T10:48:32;0.70;;;0.30;;
46078;SDS011;31820;51.880;-0.518;2022-08-03T10:51:00;0.82;;;0.10;;
46078;SDS011;31820;51.880;-0.518;2022-08-03T10:53:35;0.77;;;0.10;;
46078;SDS011;31820;51.880;-0.518;2022-08-03T10:56:03;0.80;;;0.20;;
46078;SDS011;31820;51.880;-0.518;2022-08-03T11:01:18;0.43;;;0.20;;
46078;SDS011;31820;51.880;-0.518;2022-08-03T11:06:29;0.70;;;0.08;;
46078;SDS011;31820;51.880;-0.518;2022-08-03T11:09:28;1.55;;;0.10;;
46078;SDS011;31820;51.880;-0.518;2022-08-03T11:11:47;0.40;;;0.00;;
46078;SDS011;31820;51.880;-0.518;2022-08-03T11:14:19;1.48;;;0.20;;
46078;SDS011;31820;51.880;-0.518;2022-08-03T11:16:49;2.00;;;0.20;;
46078;SDS011;31820;51.880;-0.518;2022-08-03T11:19:46;2.47;;;0.22;;
46078;SDS011;31820;51.880;-0.518;2022-08-03T11:22:13;0.57;;;0.20;;
46078;SDS011;31820;51.880;-0.518;2022-08-03T11:35:56;0.75;;;0.10;;
46078;SDS011;31820;51.880;-0.518;2022-08-03T11:43:06;0.73;;;0.13;;
46078;SDS011;31820;51.880;-0.518;2022-08-03T11:45:35;0.40;;;0.10;;
46078;SDS011;31820;51.880;-0.518;2022-08-03T11:48:11;0.85;;;0.15;;
46078;SDS011;31820;51.880;-0.518;2022-08-03T11:50:39;0.73;;;0.08;;
46078;SDS011;31820;51.880;-0.518;2022-08-03T11:53:11;1.77;;;0.13;;
46078;SDS011;31820;51.880;-0.518;2022-08-03T11:55:39;2.63;;;0.13;;
46078;SDS011;31820;51.880;-0.518;2022-08-03T11:58:07;0.77;;;0.20;;
46078;SDS011;31820;51.880;-0.518;2022-08-03T12:00:33;0.38;;;0.10;;
46078;SDS011;31820;51.880;-0.518;2022-08-03T12:03:00;1.42;;;0.10;;
46078;SDS011;31820;51.880;-0.518;2022-08-03T12:05:34;0.40;;;0.10;;
46078;SDS011;31820;51.880;-0.518;2022-08-03T12:08:06;0.98;;;0.30;;
46078;SDS011;31820;51.880;-0.518;2022-08-03T12:10:33;0.73;;;0.10;;
46078;SDS011;31820;51.880;-0.518;2022-08-03T12:13:04;2.10;;;0.30;;
46078;SDS011;31820;51.880;-0.518;2022-08-03T12:15:31;1.02;;;0.20;;
46078;SDS011;31820;51.880;-0.518;2022-08-03T12:18:00;0.50;;;0.15;;
46078;SDS011;31820;51.880;-0.518;2022-08-03T12:20:28;0.38;;;0.20;;
46078;SDS011;31820;51.880;-0.518;2022-08-03T12:23:01;2.13;;;0.20;;
46078;SDS011;31820;51.880;-0.518;2022-08-03T12:25:28;0.95;;;0.25;;
46078;SDS011;31820;51.880;-0.518;2022-08-03T12:28:04;3.60;;;0.40;;
46078;SDS011;31820;51.880;-0.518;2022-08-03T12:30:43;3.40;;;0.35;;
46078;SDS011;31820;51.880;-0.518;2022-08-03T12:33:18;1.40;;;0.32;;
46078;SDS011;31820;51.880;-0.518;2022-08-03T12:35:46;1.42;;;0.30;;
46078;SDS011;31820;51.880;-0.518;2022-08-03T12:38:17;0.88;;;0.30;;
46078;SDS011;31820;51.880;-0.518;2022-08-03T12:40:44;1.27;;;0.28;;
46078;SDS011;31820;51.880;-0.518;2022-08-03T12:43:11;1.05;;;0.30;;
46078;SDS011;31820;51.880;-0.518;2022-08-03T12:45:38;1.85;;;0.30;;
46078;SDS011;31820;51.880;-0.518;2022-08-03T12:48:07;1.50;;;0.20;;
46078;SDS011;31820;51.880;-0.518;2022-08-03T12:50:35;1.85;;;0.30;;
46078;SDS011;31820;51.880;-0.518;2022-08-03T12:53:03;4.03;;;0.63;;
46078;SDS011;31820;51.880;-0.518;2022-08-03T12:55:31;0.52;;;0.22;;
46078;SDS011;31820;51.880;-0.518;2022-08-03T12:58:00;1.85;;;0.30;;
46078;SDS011;31820;51.880;-0.518;2022-08-03T13:00:27;2.33;;;0.40;;
46078;SDS011;31820;51.880;-0.518;2022-08-03T13:03:01;1.52;;;0.50;;
46078;SDS011;31820;51.880;-0.518;2022-08-03T13:05:28;1.02;;;0.30;;
46078;SDS011;31820;51.880;-0.518;2022-08-03T13:07:55;0.77;;;0.20;;
46078;SDS011;31820;51.880;-0.518;2022-08-03T13:10:28;2.37;;;0.30;;
46078;SDS011;31820;51.880;-0.518;2022-08-03T13:12:55;1.65;;;0.30;;
46078;SDS011;31820;51.880;-0.518;2022-08-03T13:15:23;1.45;;;0.40;;
46078;SDS011;31820;51.880;-0.518;2022-08-03T13:17:51;1.30;;;0.38;;
46078;SDS011;31820;51.880;-0.518;2022-08-03T13:20:16;1.77;;;0.50;;
46078;SDS011;31820;51.880;-0.518;2022-08-03T13:22:45;0.80;;;0.30;;
46078;SDS011;31820;51.880;-0.518;2022-08-03T13:25:11;3.15;;;0.50;;
46078;SDS011;31820;51.880;-0.518;2022-08-03T13:27:38;1.90;;;0.40;;
46078;SDS011;31820;51.880;-0.518;2022-08-03T13:30:04;1.17;;;0.38;;
46078;SDS011;31820;51.880;-0.518;2022-08-03T13:32:30;1.00;;;0.40;;
46078;SDS011;31820;51.880;-0.518;2022-08-03T13:34:57;1.75;;;0.43;;
46078;SDS011;31820;51.880;-0.518;2022-08-03T13:37:23;2.75;;;0.43;;
46078;SDS011;31820;51.880;-0.518;2022-08-03T13:39:49;0.67;;;0.20;;
46078;SDS011;31820;51.880;-0.518;2022-08-03T13:42:14;2.25;;;0.40;;
46078;SDS011;31820;51.880;-0.518;2022-08-03T13:44:40;0.85;;;0.30;;
46078;SDS011;31820;51.880;-0.518;2022-08-03T13:47:06;1.10;;;0.40;;
46078;SDS011;31820;51.880;-0.518;2022-08-03T13:49:31;2.42;;;0.32;;
46078;SDS011;31820;51.880;-0.518;2022-08-03T13:51:57;2.97;;;0.38;;
46078;SDS011;31820;51.880;-0.518;2022-08-03T13:54:23;2.33;;;0.50;;
46078;SDS011;31820;51.880;-0.518;2022-08-03T13:56:49;1.73;;;0.60;;
46078;SDS011;31820;51.880;-0.518;2022-08-03T13:59:18;1.15;;;0.38;;
46078;SDS011;31820;51.880;-0.518;2022-08-03T14:01:48;1.05;;;0.40;;
46078;SDS011;31820;51.880;-0.518;2022-08-03T14:04:15;1.27;;;0.30;;
46078;SDS011;31820;51.880;-0.518;2022-08-03T14:06:41;2.35;;;0.45;;
46078;SDS011;31820;51.880;-0.518;2022-08-03T14:09:13;1.10;;;0.30;;
46078;SDS011;31820;51.880;-0.518;2022-08-03T14:11:40;1.38;;;0.40;;
46078;SDS011;31820;51.880;-0.518;2022-08-03T14:14:06;1.05;;;0.25;;
46078;SDS011;31820;51.880;-0.518;2022-08-03T14:16:33;2.33;;;0.50;;
46078;SDS011;31820;51.880;-0.518;2022-08-03T14:18:59;1.73;;;0.20;;
46078;SDS011;31820;51.880;-0.518;2022-08-03T14:21:25;1.90;;;0.30;;
46078;SDS011;31820;51.880;-0.518;2022-08-03T14:23:50;4.55;;;0.63;;
46078;SDS011;31820;51.880;-0.518;2022-08-03T14:26:16;0.82;;;0.28;;
46078;SDS011;31820;51.880;-0.518;2022-08-03T14:28:44;1.83;;;0.60;;
46078;SDS011;31820;51.880;-0.518;2022-08-03T14:31:10;0.90;;;0.37;;
46078;SDS011;31820;51.880;-0.518;2022-08-03T14:33:36;2.30;;;0.35;;
46078;SDS011;31820;51.880;-0.518;2022-08-03T14:36:02;1.45;;;0.40;;
46078;SDS011;31820;51.880;-0.518;2022-08-03T14:38:28;1.15;;;0.40;;
46078;SDS011;31820;51.880;-0.518;2022-08-03T14:40:54;1.25;;;0.30;;
46078;SDS011;31820;51.880;-0.518;2022-08-03T14:43:19;1.50;;;0.50;;
46078;SDS011;31820;51.880;-0.518;2022-08-03T14:45:46;2.83;;;0.65;;
46078;SDS011;31820;51.880;-0.518;2022-08-03T14:48:16;1.90;;;0.50;;
46078;SDS011;31820;51.880;-0.518;2022-08-03T14:50:42;1.65;;;0.52;;
46078;SDS011;31820;51.880;-0.518;2022-08-03T14:53:08;1.30;;;0.30;;
46078;SDS011;31820;51.880;-0.518;2022-08-03T14:55:34;2.20;;;0.70;;
46078;SDS011;31820;51.880;-0.518;2022-08-03T14:57:59;3.08;;;0.93;;
46078;SDS011;31820;51.880;-0.518;2022-08-03T15:00:30;1.27;;;0.40;;
46078;SDS011;31820;51.880;-0.518;2022-08-03T15:02:56;2.05;;;0.63;;
46078;SDS011;31820;51.880;-0.518;2022-08-03T15:05:22;1.15;;;0.50;;
46078;SDS011;31820;51.880;-0.518;2022-08-03T15:07:48;1.63;;;0.60;;
46078;SDS011;31820;51.880;-0.518;2022-08-03T15:10:13;0.93;;;0.30;;
46078;SDS011;31820;51.880;-0.518;2022-08-03T15:12:39;1.50;;;0.40;;
46078;SDS011;31820;51.880;-0.518;2022-08-03T15:15:05;0.65;;;0.28;;
46078;SDS011;31820;51.880;-0.518;2022-08-03T15:17:31;2.17;;;0.50;;
46078;SDS011;31820;51.880;-0.518;2022-08-03T15:19:57;0.60;;;0.38;;
46078;SDS011;31820;51.880;-0.518;2022-08-03T15:22:22;2.97;;;0.52;;
46078;SDS011;31820;51.880;-0.518;2022-08-03T15:24:48;1.02;;;0.20;;
46078;SDS011;31820;51.880;-0.518;2022-08-03T15:27:14;10.77;;;0.90;;
46078;SDS011;31820;51.880;-0.518;2022-08-03T15:29:39;1.42;;;0.60;;
46078;SDS011;31820;51.880;-0.518;2022-08-03T15:32:05;2.05;;;0.40;;
46078;SDS011;31820;51.880;-0.518;2022-08-03T15:34:31;9.88;;;1.30;;